Time;durP1;ratioP1;P1;durP2;ratioP2;P2;SDS_P1;SDS_P2;PMS_P1;PMS_P2;Temp;Humidity;BMP_temperature;BMP_pressure;BME280_temperature;BME280_humidity;BME280_pressure;Samples;Min_cycle;Max_cycle;Signal;HPM_P1;HPM_P2
2022/11/20 00:02:04;;;;;;;;;;;;;;;-1.73;85.69336;101541.6;;;;-75
2022/11/20 00:07:03;;;;;;;;;;;;;;;-1.81;85.6123;101545.4;;;;-75
2022/11/20 00:08:09;;;;;;;4.5;2.4;;;;;;;;;;;;;-74
2022/11/20 00:12:03;;;;;;;;;;;;;;;-1.93;85.42773;101551;;;;-75
2022/11/20 00:17:03;;;;;;;;;;;;;;;-1.97;85.43945;101547.5;;;;-75
2022/11/20 00:22:03;;;;;;;;;;;;;;;-2.04;85.47852;101537.1;;;;-75
2022/11/20 00:27:03;;;;;;;;;;;;;;;-2.12;85.4834;101541;;;;-75
2022/11/20 00:32:03;;;;;;;;;;;;;;;-2.2;85.46875;101532.4;;;;-75
2022/11/20 00:37:05;;;;;;;;;;;;;;;-2.17;85.51758;101531.6;;;;-76
2022/11/20 00:38:08;;;;;;;5.9;2.6;;;;;;;;;;;;;-75
2022/11/20 00:42:03;;;;;;;;;;;;;;;-2.16;85.55273;101529.8;;;;-75
2022/11/20 00:47:03;;;;;;;;;;;;;;;-2.28;85.35742;101527.1;;;;-76
2022/11/20 00:52:03;;;;;;;;;;;;;;;-2.33;85.40039;101526.2;;;;-75
2022/11/20 00:57:03;;;;;;;;;;;;;;;-2.34;85.2998;101519.5;;;;-75
2022/11/20 01:02:03;;;;;;;;;;;;;;;-2.47;85.41406;101516.4;;;;-76
2022/11/20 01:07:03;;;;;;;;;;;;;;;-2.44;85.39941;101507.8;;;;-76
2022/11/20 01:08:07;;;;;;;6.2;2.6;;;;;;;;;;;;;-76
2022/11/20 01:12:03;;;;;;;;;;;;;;;-2.53;85.30664;101507.5;;;;-76
2022/11/20 01:17:03;;;;;;;;;;;;;;;-2.58;85.27441;101505.5;;;;-75
2022/11/20 01:22:04;;;;;;;;;;;;;;;-2.59;85.26172;101514.3;;;;-76
2022/11/20 01:27:05;;;;;;;;;;;;;;;-2.62;85.23438;101505.6;;;;-75
2022/11/20 01:32:03;;;;;;;;;;;;;;;-2.64;85.06836;101495.5;;;;-74
2022/11/20 01:37:03;;;;;;;;;;;;;;;-2.71;85.12012;101489;;;;-75
2022/11/20 01:38:12;;;;;;;4.6;2.5;;;;;;;;;;;;;-75
2022/11/20 01:47:04;;;;;;;;;;;;;;;-2.81;85.26074;101489.8;;;;-75
2022/11/20 01:52:05;;;;;;;;;;;;;;;-2.91;85.09082;101482.9;;;;-75
2022/11/20 01:57:04;;;;;;;;;;;;;;;-2.88;84.93555;101479.3;;;;-75
2022/11/20 02:02:03;;;;;;;;;;;;;;;-2.96;85.09082;101474.5;;;;-75
2022/11/20 02:07:04;;;;;;;;;;;;;;;-2.98;85.02441;101467.1;;;;-75
2022/11/20 02:08:08;;;;;;;5.3;2.4;;;;;;;;;;;;;-75
2022/11/20 02:13:42;;;;;;;;;;;;;;;-3.01;85.04883;101465.4;;;;-75
2022/11/20 02:17:03;;;;;;;;;;;;;;;-3.09;85.19531;101462.6;;;;-75
2022/11/20 02:22:05;;;;;;;;;;;;;;;-3.15;85.2041;101466.7;;;;-74
2022/11/20 02:27:05;;;;;;;;;;;;;;;-3.09;85.02246;101460.6;;;;-75
2022/11/20 02:32:04;;;;;;;;;;;;;;;-3.12;84.99512;101465.2;;;;-74
2022/11/20 02:37:03;;;;;;;;;;;;;;;-3.24;85.16406;101467.8;;;;-74
2022/11/20 02:38:04;;;;;;;7.7;2.3;;;;;;;;;;;;;-74
2022/11/20 02:42:04;;;;;;;;;;;;;;;-3.23;85.04785;101456.9;;;;-75
2022/11/20 02:47:06;;;;;;;;;;;;;;;-3.26;85.10547;101451.9;;;;-74
2022/11/20 02:52:03;;;;;;;;;;;;;;;-3.23;85.04688;101452.3;;;;-75
2022/11/20 02:57:03;;;;;;;;;;;;;;;-3.34;84.93848;101447.4;;;;-75
2022/11/20 03:02:04;;;;;;;;;;;;;;;-3.39;84.87793;101434.6;;;;-75
2022/11/20 03:07:03;;;;;;;;;;;;;;;-3.4;84.91895;101435.6;;;;-75
2022/11/20 03:08:00;;;;;;;5.1;2.1;;;;;;;;;;;;;-74
2022/11/20 03:12:03;;;;;;;;;;;;;;;-3.45;84.83301;101430.8;;;;-74
2022/11/20 03:17:03;;;;;;;;;;;;;;;-3.41;84.9248;101428.1;;;;-74
2022/11/20 03:22:03;;;;;;;;;;;;;;;-3.51;84.71191;101419.6;;;;-75
2022/11/20 03:27:03;;;;;;;;;;;;;;;-3.53;84.83789;101410.3;;;;-73
2022/11/20 03:32:03;;;;;;;;;;;;;;;-3.55;84.78125;101409.6;;;;-74
2022/11/20 03:37:03;;;;;;;;;;;;;;;-3.56;84.68262;101411.4;;;;-74
2022/11/20 03:37:59;;;;;;;6.5;2.5;;;;;;;;;;;;;-75
2022/11/20 03:42:44;;;;;;;;;;;;;;;-3.66;84.74707;101407.6;;;;-74
2022/11/20 03:47:04;;;;;;;;;;;;;;;-3.66;84.61816;101410.8;;;;-73
2022/11/20 03:52:03;;;;;;;;;;;;;;;-3.66;84.76953;101397.2;;;;-75
2022/11/20 03:57:03;;;;;;;;;;;;;;;-3.63;84.60449;101393.6;;;;-73
2022/11/20 04:02:03;;;;;;;;;;;;;;;-3.68;84.6377;101388.5;;;;-74
2022/11/20 04:07:03;;;;;;;;;;;;;;;-3.68;84.50781;101387.2;;;;-74
2022/11/20 04:07:57;;;;;;;4;1.8;;;;;;;;;;;;;-74
2022/11/20 04:12:03;;;;;;;;;;;;;;;-3.7;84.70898;101373;;;;-73
2022/11/20 04:17:03;;;;;;;;;;;;;;;-3.7;84.64551;101371.5;;;;-75
2022/11/20 04:22:03;;;;;;;;;;;;;;;-3.67;84.43555;101367.4;;;;-74
2022/11/20 04:27:03;;;;;;;;;;;;;;;-3.66;84.51367;101364.6;;;;-75
2022/11/20 04:32:03;;;;;;;;;;;;;;;-3.62;84.45703;101367.4;;;;-74
2022/11/20 04:37:03;;;;;;;;;;;;;;;-3.63;84.50781;101362.2;;;;-75
2022/11/20 04:37:58;;;;;;;5.5;2.1;;;;;;;;;;;;;-75
2022/11/20 04:47:03;;;;;;;;;;;;;;;-3.61;84.6084;101357.9;;;;-76
2022/11/20 04:52:03;;;;;;;;;;;;;;;-3.59;84.79395;101348.1;;;;-75
2022/11/20 04:57:03;;;;;;;;;;;;;;;-3.56;84.62988;101351.5;;;;-73
2022/11/20 05:02:04;;;;;;;;;;;;;;;-3.6;84.90039;101347;;;;-74
2022/11/20 05:07:03;;;;;;;;;;;;;;;-3.53;84.76367;101342.3;;;;-74
2022/11/20 05:07:54;;;;;;;3.9;1.8;;;;;;;;;;;;;-74
2022/11/20 05:12:03;;;;;;;;;;;;;;;-3.52;84.87207;101336.9;;;;-74
2022/11/20 05:17:03;;;;;;;;;;;;;;;-3.48;84.86914;101332.8;;;;-73
2022/11/20 05:22:03;;;;;;;;;;;;;;;-3.47;84.83887;101333.4;;;;-74
2022/11/20 05:27:03;;;;;;;;;;;;;;;-3.45;84.86523;101334.5;;;;-74
2022/11/20 05:32:03;;;;;;;;;;;;;;;-3.45;84.89746;101337.1;;;;-73
2022/11/20 05:37:03;;;;;;;;;;;;;;;-3.42;84.95605;101332;;;;-75
2022/11/20 05:37:53;;;;;;;5.2;2.5;;;;;;;;;;;;;-74
2022/11/20 05:47:03;;;;;;;;;;;;;;;-3.44;84.94043;101338.9;;;;-73
2022/11/20 05:52:03;;;;;;;;;;;;;;;-3.53;85.39453;101352.3;;;;-73
2022/11/20 05:57:03;;;;;;;;;;;;;;;-3.41;84.99023;101351.3;;;;-75
2022/11/20 06:02:03;;;;;;;;;;;;;;;-3.52;85.23535;101343.1;;;;-73
2022/11/20 06:07:03;;;;;;;;;;;;;;;-3.46;85.05469;101337.2;;;;-74
2022/11/20 06:07:51;;;;;;;6.1;2.5;;;;;;;;;;;;;-73
2022/11/20 06:12:03;;;;;;;;;;;;;;;-3.39;85.17578;101336.6;;;;-74
2022/11/20 06:17:03;;;;;;;;;;;;;;;-3.39;85.25098;101330.5;;;;-74
2022/11/20 06:22:03;;;;;;;;;;;;;;;-3.37;85.35059;101334.3;;;;-73
2022/11/20 06:27:03;;;;;;;;;;;;;;;-3.34;85.22754;101328.5;;;;-73
2022/11/20 06:32:03;;;;;;;;;;;;;;;-3.26;85.25684;101328;;;;-74
2022/11/20 06:37:03;;;;;;;;;;;;;;;-3.27;85.57422;101318.4;;;;-74
2022/11/20 06:37:50;;;;;;;6;2.9;;;;;;;;;;;;;-75
2022/11/20 06:42:03;;;;;;;;;;;;;;;-3.18;85.41211;101334.4;;;;-73
2022/11/20 06:47:03;;;;;;;;;;;;;;;-3.16;85.58496;101327.6;;;;-74
2022/11/20 06:52:03;;;;;;;;;;;;;;;-3.14;85.67383;101323.7;;;;-74
2022/11/20 06:57:03;;;;;;;;;;;;;;;-3.12;85.62695;101313.9;;;;-72
2022/11/20 07:02:03;;;;;;;;;;;;;;;-3.08;85.46289;101307;;;;-73
2022/11/20 07:07:03;;;;;;;;;;;;;;;-3.14;85.84766;101299.4;;;;-75
2022/11/20 07:07:51;;;;;;;5.8;2.7;;;;;;;;;;;;;-74
2022/11/20 07:12:03;;;;;;;;;;;;;;;-3.05;85.62012;101290.2;;;;-74
2022/11/20 07:17:03;;;;;;;;;;;;;;;-3.04;85.56836;101296.7;;;;-75
2022/11/20 07:22:03;;;;;;;;;;;;;;;-3.02;85.66797;101293.3;;;;-75
2022/11/20 07:27:03;;;;;;;;;;;;;;;-2.95;85.55273;101292.7;;;;-75
2022/11/20 07:32:03;;;;;;;;;;;;;;;-2.96;85.67871;101298.5;;;;-74
2022/11/20 07:37:03;;;;;;;;;;;;;;;-2.94;85.68457;101305.5;;;;-73
2022/11/20 07:37:48;;;;;;;6.5;3.2;;;;;;;;;;;;;-73
2022/11/20 07:42:03;;;;;;;;;;;;;;;-2.88;85.64258;101303.3;;;;-72
2022/11/20 07:47:03;;;;;;;;;;;;;;;-2.82;85.75098;101298.3;;;;-74
2022/11/20 07:52:03;;;;;;;;;;;;;;;-2.7;85.68945;101295.9;;;;-73
2022/11/20 07:57:03;;;;;;;;;;;;;;;-2.6;85.79492;101286.8;;;;-73
2022/11/20 08:02:04;;;;;;;;;;;;;;;-2.51;85.75977;101281;;;;-73
2022/11/20 08:07:03;;;;;;;;;;;;;;;-2.41;85.91992;101267.9;;;;-74
2022/11/20 08:07:46;;;;;;;8.7;4;;;;;;;;;;;;;-73
2022/11/20 08:17:03;;;;;;;;;;;;;;;-2.23;85.92285;101252.2;;;;-74
2022/11/20 08:22:04;;;;;;;;;;;;;;;-2.14;85.95313;101258.3;;;;-74
2022/11/20 08:27:04;;;;;;;;;;;;;;;-2.02;85.92188;101268.8;;;;-73
2022/11/20 08:32:03;;;;;;;;;;;;;;;-1.97;86.04004;101270.4;;;;-73
2022/11/20 08:37:06;;;;;;;;;;;;;;;-1.86;85.9248;101260.8;;;;-73
2022/11/20 08:37:45;;;;;;;10.7;4.5;;;;;;;;;;;;;-76
2022/11/20 08:42:03;;;;;;;;;;;;;;;-1.78;86.03613;101259.2;;;;-74
2022/11/20 08:47:04;;;;;;;;;;;;;;;-1.72;86.13477;101263.2;;;;-74
2022/11/20 08:52:03;;;;;;;;;;;;;;;-1.66;86.39453;101264.3;;;;-72
2022/11/20 08:57:03;;;;;;;;;;;;;;;-1.54;86.20215;101253.8;;;;-73
2022/11/20 09:02:03;;;;;;;;;;;;;;;-1.46;86.39063;101233.7;;;;-73
2022/11/20 09:07:03;;;;;;;;;;;;;;;-1.37;86.3125;101237.7;;;;-74
2022/11/20 09:07:43;;;;;;;11.6;5.3;;;;;;;;;;;;;-73
2022/11/20 09:12:03;;;;;;;;;;;;;;;-1.27;86.21387;101238.2;;;;-73
2022/11/20 09:17:03;;;;;;;;;;;;;;;-1.22;86.34375;101238.7;;;;-74
2022/11/20 09:22:03;;;;;;;;;;;;;;;-1.08;86.15625;101216.9;;;;-74
2022/11/20 09:27:05;;;;;;;;;;;;;;;-0.99;86.31445;101205.1;;;;-74
2022/11/20 09:32:03;;;;;;;;;;;;;;;-0.86;85.99609;101203.8;;;;-74
2022/11/20 09:37:03;;;;;;;;;;;;;;;-0.78;86.17383;101208.7;;;;-75
2022/11/20 09:37:42;;;;;;;13.5;5.9;;;;;;;;;;;;;-74
2022/11/20 09:42:08;;;;;;;;;;;;;;;-0.65;85.98438;101190.8;;;;-75
2022/11/20 09:47:08;;;;;;;;;;;;;;;-0.54;85.83398;101187.7;;;;-74
2022/11/20 09:52:08;;;;;;;;;;;;;;;-0.44;85.96191;101181;;;;-73
2022/11/20 09:57:04;;;;;;;;;;;;;;;-0.32;85.77246;101183.8;;;;-74
2022/11/20 10:02:10;;;;;;;;;;;;;;;-0.2;85.61133;101176;;;;-74
2022/11/20 10:07:06;;;;;;;;;;;;;;;-0.1;85.69727;101171.3;;;;-74
2022/11/20 10:07:44;;;;;;;15;6.2;;;;;;;;;;;;;-74
2022/11/20 10:12:07;;;;;;;;;;;;;;;0.07;85.64453;101161.5;;;;-74
2022/11/20 10:17:07;;;;;;;;;;;;;;;0.21;85.45801;101147.4;;;;-73
2022/11/20 10:22:10;;;;;;;;;;;;;;;0.3;85.38965;101147.3;;;;-73
2022/11/20 10:27:09;;;;;;;;;;;;;;;0.42;85.16309;101139.5;;;;-75
2022/11/20 10:32:05;;;;;;;;;;;;;;;0.53;84.93848;101121;;;;-76
2022/11/20 10:37:07;;;;;;;;;;;;;;;0.72;83.18262;101111.7;;;;-74
2022/11/20 10:37:41;;;;;;;16.7;6.7;;;;;;;;;;;;;-73
2022/11/20 10:42:05;;;;;;;;;;;;;;;0.8;83.85938;101095.6;;;;-74
2022/11/20 10:47:03;;;;;;;;;;;;;;;0.81;85.74023;101096.5;;;;-74
2022/11/20 10:52:08;;;;;;;;;;;;;;;0.89;85.57129;101091.2;;;;-74
2022/11/20 10:57:06;;;;;;;;;;;;;;;1;83.89844;101078.4;;;;-73
2022/11/20 11:02:05;;;;;;;;;;;;;;;1.08;82.90918;101065.2;;;;-73
2022/11/20 11:07:09;;;;;;;;;;;;;;;1.14;83.4707;101067.6;;;;-73
2022/11/20 11:07:40;;;;;;;16;7.5;;;;;;;;;;;;;-74
2022/11/20 11:12:06;;;;;;;;;;;;;;;1.2;82.88867;101062.4;;;;-73
2022/11/20 11:17:03;;;;;;;;;;;;;;;1.25;82.78906;101057.3;;;;-75
2022/11/20 11:22:05;;;;;;;;;;;;;;;1.29;83.15332;101046;;;;-73
2022/11/20 11:27:06;;;;;;;;;;;;;;;1.33;83.28223;101042;;;;-74
2022/11/20 11:32:11;;;;;;;;;;;;;;;1.37;83.62207;101037.8;;;;-74
2022/11/20 11:37:04;;;;;;;;;;;;;;;1.38;83.625;101030.8;;;;-75
2022/11/20 11:37:41;;;;;;;17.6;7.7;;;;;;;;;;;;;-75
2022/11/20 11:42:04;;;;;;;;;;;;;;;1.41;83.52441;101016.3;;;;-73
2022/11/20 11:47:08;;;;;;;;;;;;;;;1.44;83.35645;101002.5;;;;-74
2022/11/20 11:52:16;;;;;;;;;;;;;;;1.48;83.14844;100976.1;;;;-74
2022/11/20 11:57:07;;;;;;;;;;;;;;;1.53;83.48242;100971.1;;;;-74
2022/11/20 12:02:05;;;;;;;;;;;;;;;1.57;83.16309;100966.2;;;;-74
2022/11/20 12:07:05;;;;;;;;;;;;;;;1.6;83.33203;100957.3;;;;-74
2022/11/20 12:07:45;;;;;;;17.4;8.6;;;;;;;;;;;;;-75
2022/11/20 12:12:09;;;;;;;;;;;;;;;1.6;83.96191;100950.8;;;;-74
2022/11/20 12:17:04;;;;;;;;;;;;;;;1.64;84.46484;100953.9;;;;-76
2022/11/20 12:22:06;;;;;;;;;;;;;;;1.66;84.41602;100941.7;;;;-74
2022/11/20 12:27:09;;;;;;;;;;;;;;;1.69;84.6377;100939.5;;;;-73
2022/11/20 12:32:19;;;;;;;;;;;;;;;1.71;84.91406;100932.6;;;;-75
2022/11/20 12:37:07;;;;;;;;;;;;;;;1.74;85.42871;100922.9;;;;-75
2022/11/20 12:37:41;;;;;;;20.6;9.2;;;;;;;;;;;;;-75
2022/11/20 12:47:08;;;;;;;;;;;;;;;1.78;86.22754;100895.5;;;;-75
2022/11/20 12:52:09;;;;;;;;;;;;;;;1.78;86.39844;100882.2;;;;-75
2022/11/20 12:57:07;;;;;;;;;;;;;;;1.76;87.42285;100879.3;;;;-76
2022/11/20 13:02:12;;;;;;;;;;;;;;;1.74;87.96875;100873.4;;;;-74
2022/11/20 13:07:05;;;;;;;;;;;;;;;1.76;88.01758;100863.4;;;;-75
2022/11/20 13:07:36;;;;;;;28.3;11.1;;;;;;;;;;;;;-76
2022/11/20 13:12:09;;;;;;;;;;;;;;;1.77;88.2334;100854.6;;;;-75
2022/11/20 13:17:05;;;;;;;;;;;;;;;1.78;88.25879;100833.8;;;;-74
2022/11/20 13:22:03;;;;;;;;;;;;;;;1.79;88.25;100813.1;;;;-75
2022/11/20 13:27:20;;;;;;;;;;;;;;;1.81;88.3418;100799.7;;;;-75
2022/11/20 13:32:10;;;;;;;;;;;;;;;1.83;88.46484;100818.6;;;;-75
2022/11/20 13:37:04;;;;;;;;;;;;;;;1.84;88.75879;100817.4;;;;-75
2022/11/20 13:37:36;;;;;;;25.1;10.2;;;;;;;;;;;;;-75
2022/11/20 13:42:04;;;;;;;;;;;;;;;1.86;89.44336;100820.7;;;;-74
2022/11/20 13:47:03;;;;;;;;;;;;;;;1.86;89.49805;100807.4;;;;-75
2022/11/20 13:52:08;;;;;;;;;;;;;;;1.88;89.28516;100793.3;;;;-74
2022/11/20 13:57:11;;;;;;;;;;;;;;;1.89;89.50391;100788.4;;;;-75
2022/11/20 14:02:03;;;;;;;;;;;;;;;1.9;89.58301;100789.8;;;;-75
2022/11/20 14:07:03;;;;;;;;;;;;;;;1.93;89.82422;100783.2;;;;-75
2022/11/20 14:07:36;;;;;;;25.3;10.4;;;;;;;;;;;;;-75
2022/11/20 14:12:03;;;;;;;;;;;;;;;1.95;89.74219;100769.8;;;;-75
2022/11/20 14:17:12;;;;;;;;;;;;;;;1.97;89.9082;100756.8;;;;-75
2022/11/20 14:22:11;;;;;;;;;;;;;;;1.99;90.01074;100749.1;;;;-77
2022/11/20 14:27:03;;;;;;;;;;;;;;;2.02;90.06152;100732.8;;;;-75
2022/11/20 14:32:03;;;;;;;;;;;;;;;2.05;89.86035;100723.7;;;;-75
2022/11/20 14:37:04;;;;;;;;;;;;;;;2.05;89.96094;100726.1;;;;-78
2022/11/20 14:37:37;;;;;;;22.8;10;;;;;;;;;;;;;-78
2022/11/20 14:42:06;;;;;;;;;;;;;;;2.07;90.16895;100723.8;;;;-76
2022/11/20 14:47:04;;;;;;;;;;;;;;;2.08;90.37598;100728.8;;;;-75
2022/11/20 14:52:13;;;;;;;;;;;;;;;2.09;90.78906;100722.9;;;;-76
2022/11/20 14:57:07;;;;;;;;;;;;;;;2.08;90.88477;100715.7;;;;-76
2022/11/20 15:02:05;;;;;;;;;;;;;;;2.07;90.7002;100707.6;;;;-76
2022/11/20 15:07:04;;;;;;;;;;;;;;;2.06;90.65332;100696.6;;;;-75
2022/11/20 15:07:34;;;;;;;23.1;9.9;;;;;;;;;;;;;-75
2022/11/20 15:12:05;;;;;;;;;;;;;;;2.06;90.57813;100691.5;;;;-76
2022/11/20 15:17:04;;;;;;;;;;;;;;;2.06;90.54492;100681.7;;;;-76
2022/11/20 15:22:06;;;;;;;;;;;;;;;2.05;90.40527;100684;;;;-75
2022/11/20 15:27:04;;;;;;;;;;;;;;;2.04;90.35547;100677.3;;;;-76
2022/11/20 15:32:04;;;;;;;;;;;;;;;2.04;90.47461;100676.7;;;;-76
2022/11/20 15:37:03;;;;;;;;;;;;;;;2.02;90.42969;100669.6;;;;-77
2022/11/20 15:37:33;;;;;;;23.6;9.5;;;;;;;;;;;;;-77
2022/11/20 15:42:03;;;;;;;;;;;;;;;2.03;90.32129;100668.6;;;;-77
2022/11/20 15:47:03;;;;;;;;;;;;;;;2.03;90.41016;100663.9;;;;-77
2022/11/20 15:52:07;;;;;;;;;;;;;;;2.02;90.66699;100650.9;;;;-77
2022/11/20 15:57:03;;;;;;;;;;;;;;;2.02;90.5918;100640.4;;;;-77
2022/11/20 16:02:03;;;;;;;;;;;;;;;2.03;90.63672;100637.3;;;;-76
2022/11/20 16:07:04;;;;;;;;;;;;;;;2.02;90.5918;100632.2;;;;-77
2022/11/20 16:07:31;;;;;;;21.4;9.3;;;;;;;;;;;;;-78
2022/11/20 16:12:04;;;;;;;;;;;;;;;2.02;90.26758;100626.9;;;;-76
2022/11/20 16:17:03;;;;;;;;;;;;;;;2.03;90.46191;100622.5;;;;-77
2022/11/20 16:22:04;;;;;;;;;;;;;;;2.04;90.54004;100616.7;;;;-77
2022/11/20 16:27:03;;;;;;;;;;;;;;;2.03;90.57227;100611.9;;;;-76
2022/11/20 16:32:04;;;;;;;;;;;;;;;2.04;90.46387;100604.5;;;;-76
2022/11/20 16:37:15;;;;;;;;;;;;;;;2.05;90.46582;100597.5;;;;-76
2022/11/20 16:37:58;;;;;;;;;;;;;;;2.14;90.6582;100597.5;;;;-77
2022/11/20 16:42:51;;;;;;;;;;;;;;;2.06;90.61035;100587.1;;;;-77
2022/11/20 16:47:40;;;;;;;;;;;;;;;2.07;90.78516;100577.1;;;;-76
2022/11/20 16:52:36;;;;;;;;;;;;;;;2.08;90.87402;100571.8;;;;-77
2022/11/20 16:57:36;;;;;;;;;;;;;;;2.09;91.14551;100561.1;;;;-77
2022/11/20 17:02:36;;;;;;;;;;;;;;;2.11;91.11719;100561.3;;;;-77
2022/11/20 17:07:30;;;;;;;21.8;9.3;;;;;;;;;;;;;-77
2022/11/20 17:07:44;;;;;;;;;;;;;;;2.1;91.21289;100556.1;;;;-77
2022/11/20 17:12:35;;;;;;;;;;;;;;;2.11;91.04199;100551.5;;;;-77
2022/11/20 17:17:36;;;;;;;;;;;;;;;2.13;91.24219;100551.8;;;;-76
2022/11/20 17:22:35;;;;;;;;;;;;;;;2.14;91.36133;100542.4;;;;-77
2022/11/20 17:27:38;;;;;;;;;;;;;;;2.14;91.30664;100540.7;;;;-77
2022/11/20 17:32:35;;;;;;;;;;;;;;;2.15;91.54883;100534;;;;-78
2022/11/20 17:37:30;;;;;;;20.7;8.4;;;;;;;;;;;;;-76
2022/11/20 17:37:40;;;;;;;;;;;;;;;2.17;91.36914;100533.7;;;;-76
2022/11/20 17:42:35;;;;;;;;;;;;;;;2.17;91.31445;100537;;;;-77
2022/11/20 17:47:37;;;;;;;;;;;;;;;2.18;91.57813;100543.1;;;;-76
2022/11/20 17:52:35;;;;;;;;;;;;;;;2.19;91.3291;100538.6;;;;-78
2022/11/20 18:02:35;;;;;;;;;;;;;;;2.22;91.55371;100534.5;;;;-78
2022/11/20 18:07:28;;;;;;;18.7;8.4;;;;;;;;;;;;;-72
2022/11/20 18:07:38;;;;;;;;;;;;;;;2.22;91.53223;100537.1;;;;-73
2022/11/20 18:12:36;;;;;;;;;;;;;;;2.23;91.4043;100546.3;;;;-78
2022/11/20 18:17:45;;;;;;;;;;;;;;;2.26;91.4209;100554.2;;;;-79
2022/11/20 18:22:38;;;;;;;;;;;;;;;2.26;91.58301;100550.3;;;;-78
2022/11/20 18:27:40;;;;;;;;;;;;;;;2.27;91.75781;100555.3;;;;-79
2022/11/20 18:32:38;;;;;;;;;;;;;;;2.27;91.90918;100555.1;;;;-78
2022/11/20 18:37:39;;;;;;;21.6;9.6;;;;;;;;;;;;;-78
2022/11/20 18:38:09;;;;;;;;;;;;;;;2.26;91.77734;100560.8;;;;-78
2022/11/20 18:47:42;;;;;;;;;;;;;;;2.27;91.73633;100556;;;;-80
2022/11/20 18:52:47;;;;;;;;;;;;;;;2.27;91.72559;100556.1;;;;-77
2022/11/20 18:57:36;;;;;;;;;;;;;;;2.28;91.65332;100563.9;;;;-79
2022/11/20 19:02:36;;;;;;;;;;;;;;;2.28;91.76172;100565;;;;-79
2022/11/20 19:07:31;;;;;;;22.4;9.6;;;;;;;;;;;;;-79
2022/11/20 19:08:01;;;;;;;;;;;;;;;2.26;91.67969;100558.9;;;;-79
2022/11/20 19:12:36;;;;;;;;;;;;;;;2.27;91.7793;100554.3;;;;-79
2022/11/20 19:17:37;;;;;;;;;;;;;;;2.26;92.15625;100548.8;;;;-77
2022/11/20 19:22:37;;;;;;;;;;;;;;;2.26;92.10156;100543.3;;;;-79
2022/11/20 19:27:38;;;;;;;;;;;;;;;2.25;92.30566;100545;;;;-81
2022/11/20 19:32:44;;;;;;;;;;;;;;;2.26;92.30762;100556.9;;;;-77
2022/11/20 19:38:05;;;;;;;;;;;;;;;2.26;92.24219;100555.7;;;;-77
2022/11/20 19:42:41;;;;;;;;;;;;;;;2.27;92.1582;100559;;;;-77
2022/11/20 19:47:38;;;;;;;;;;;;;;;2.27;92.35254;100563;;;;-76
2022/11/20 19:52:36;;;;;;;;;;;;;;;2.27;91.94141;100568.2;;;;-76
2022/11/20 19:57:35;;;;;;;;;;;;;;;2.27;92.07129;100575.7;;;;-77
2022/11/20 20:02:38;;;;;;;;;;;;;;;2.28;91.93457;100572.4;;;;-76
2022/11/20 20:07:27;;;;;;;22.2;9.9;;;;;;;;;;;;;-75
2022/11/20 20:07:52;;;;;;;;;;;;;;;2.28;92.02148;100571.6;;;;-75
2022/11/20 20:17:35;;;;;;;;;;;;;;;2.28;91.90039;100577.5;;;;-77
2022/11/20 20:22:36;;;;;;;;;;;;;;;2.27;92.09277;100576.1;;;;-76
2022/11/20 20:27:36;;;;;;;;;;;;;;;2.27;91.94141;100586.6;;;;-77
2022/11/20 20:32:37;;;;;;;;;;;;;;;2.28;91.94336;100588.3;;;;-77
2022/11/20 20:37:25;;;;;;;21.3;9.1;;;;;;;;;;;;;-76
2022/11/20 20:37:35;;;;;;;;;;;;;;;2.29;92.18359;100589.6;;;;-77
2022/11/20 20:42:36;;;;;;;;;;;;;;;2.28;91.80469;100594.3;;;;-76
2022/11/20 20:47:42;;;;;;;;;;;;;;;2.29;91.8916;100598.6;;;;-77
2022/11/20 20:52:39;;;;;;;;;;;;;;;2.28;92.04297;100604.2;;;;-76
2022/11/20 20:57:35;;;;;;;;;;;;;;;2.28;92.11621;100604.1;;;;-76
2022/11/20 21:02:35;;;;;;;;;;;;;;;2.27;91.91992;100620.1;;;;-77
2022/11/20 21:07:24;;;;;;;20.7;8.7;;;;;;;;;;;;;-77
2022/11/20 21:08:20;;;;;;;;;;;;;;;2.27;91.90918;100623.6;;;;-77
2022/11/20 21:12:37;;;;;;;;;;;;;;;2.27;91.8877;100617;;;;-77
2022/11/20 21:17:35;;;;;;;;;;;;;;;2.26;92.08008;100626.5;;;;-76
2022/11/20 21:22:35;;;;;;;;;;;;;;;2.25;91.77539;100630.3;;;;-75
2022/11/20 21:27:35;;;;;;;;;;;;;;;2.25;91.78613;100637.8;;;;-76
2022/11/20 21:32:35;;;;;;;;;;;;;;;2.24;91.82715;100647.5;;;;-75
2022/11/20 21:37:23;;;;;;;20.4;8.7;;;;;;;;;;;;;-77
2022/11/20 21:37:35;;;;;;;;;;;;;;;2.23;91.81543;100647.5;;;;-76
2022/11/20 21:42:35;;;;;;;;;;;;;;;2.25;91.78613;100646.1;;;;-76
2022/11/20 21:47:36;;;;;;;;;;;;;;;2.24;91.71973;100659.6;;;;-77
2022/11/20 21:52:35;;;;;;;;;;;;;;;2.25;91.79688;100648;;;;-77
2022/11/20 21:57:38;;;;;;;;;;;;;;;2.24;91.91406;100630.2;;;;-76
2022/11/20 22:02:35;;;;;;;;;;;;;;;2.24;91.94629;100626.4;;;;-76
2022/11/20 22:07:23;;;;;;;20.8;8.8;;;;;;;;;;;;;-75
2022/11/20 22:07:36;;;;;;;;;;;;;;;2.21;91.90625;100640.8;;;;-75
2022/11/20 22:12:35;;;;;;;;;;;;;;;2.16;91.93945;100668.4;;;;-76
2022/11/20 22:22:35;;;;;;;;;;;;;;;2.14;91.73047;100696.5;;;;-75
2022/11/20 22:27:35;;;;;;;;;;;;;;;2.13;91.65332;100699.5;;;;-76
2022/11/20 22:32:37;;;;;;;;;;;;;;;2.14;91.6748;100700.5;;;;-76
2022/11/20 22:37:22;;;;;;;18.2;8.5;;;;;;;;;;;;;-76
2022/11/20 22:37:35;;;;;;;;;;;;;;;2.14;91.65332;100707.2;;;;-76
2022/11/20 22:42:35;;;;;;;;;;;;;;;2.15;91.53809;100700;;;;-76
2022/11/20 22:47:44;;;;;;;;;;;;;;;2.15;91.60449;100695.1;;;;-76
2022/11/20 22:52:49;;;;;;;;;;;;;;;2.16;91.7998;100690;;;;-76
2022/11/20 23:02:40;;;;;;;;;;;;;;;2.15;91.9834;100685.4;;;;-75
2022/11/20 23:15:52;;;;;;;;;;;;;;;2.23;91.7373;100713.6;;;;-77
2022/11/20 23:19:15;;;;;;;;;;;;;;;2.14;91.8584;100715.6;;;;-77
2022/11/20 23:23:55;;;;;;;;;;;;;;;2.14;92.05469;100714.4;;;;-78
2022/11/20 23:29:04;;;;;;;;;;;;;;;2.15;92.00488;100725.9;;;;-77
2022/11/20 23:42:02;;;;;;;;;;;;;;;2.29;91.87012;100725.1;;;;-76
2022/11/20 23:55:07;;;;;;;;;;;;;;;2.35;91.33203;100723.4;;;;-77
